createdAt,value
2018-04-16T00:00:23.459Z,51.06
2018-04-16T00:02:00.330Z,51.05
2018-04-16T00:03:36.918Z,51.02
2018-04-16T00:05:13.460Z,51.01
2018-04-16T00:06:50.132Z,51.00
2018-04-16T00:08:28.258Z,50.99
2018-04-16T00:10:05.689Z,51.00
2018-04-16T00:11:42.419Z,51.02
2018-04-16T00:13:18.812Z,51.04
2018-04-16T00:14:55.962Z,51.07
2018-04-16T00:16:32.467Z,51.08
2018-04-16T00:18:08.951Z,51.13
2018-04-16T00:19:45.387Z,51.18
2018-04-16T00:21:23.755Z,51.22
2018-04-16T00:23:00.237Z,51.25
2018-04-16T00:24:36.684Z,51.28
2018-04-16T00:26:13.205Z,51.29
2018-04-16T00:27:50.235Z,51.29
2018-04-16T00:29:26.542Z,51.29
2018-04-16T00:31:02.930Z,51.28
2018-04-16T00:33:45.071Z,51.29
2018-04-16T00:36:23.696Z,51.29
2018-04-16T00:39:05.802Z,51.31
2018-04-16T00:42:48.961Z,51.34
2018-04-16T00:46:34.463Z,51.38
2018-04-16T00:50:17.193Z,51.34
2018-04-16T00:54:04.216Z,51.33
2018-04-16T00:57:06.808Z,51.34
2018-04-16T01:03:04.516Z,51.35
2018-04-16T01:07:02.745Z,51.38
2018-04-16T01:08:45.515Z,51.40
2018-04-16T01:12:30.229Z,51.42
2018-04-16T01:16:16.218Z,51.47
2018-04-16T01:20:05.425Z,51.57
2018-04-16T01:21:51.435Z,51.56
2018-04-16T01:25:39.221Z,51.57
2018-04-16T01:27:22.635Z,51.60
2018-04-16T01:31:10.187Z,51.59
2018-04-16T01:32:55.808Z,51.64
2018-04-16T01:36:41.713Z,51.69
2018-04-16T01:40:25.432Z,51.79
2018-04-16T01:43:07.803Z,51.88
2018-04-16T01:46:59.619Z,51.92
2018-04-16T01:50:44.665Z,51.93
2018-04-16T01:54:28.089Z,51.96
2018-04-16T01:58:17.889Z,52.05
2018-04-16T02:02:03.100Z,52.18
2018-04-16T02:08:03.814Z,52.26
2018-04-16T02:11:52.392Z,52.35
2018-04-16T02:15:44.800Z,52.44
2018-04-16T02:18:26.324Z,52.47
2018-04-16T02:22:11.908Z,52.45
2018-04-16T02:25:55.447Z,52.45
2018-04-16T02:29:39.222Z,52.46
2018-04-16T02:33:23.817Z,52.55
2018-04-16T02:36:10.953Z,52.58
2018-04-16T02:39:55.233Z,52.61
2018-04-16T02:43:39.325Z,52.65
2018-04-16T02:47:28.746Z,52.72
2018-04-16T02:50:07.554Z,52.79
2018-04-16T02:51:50.697Z,52.85
2018-04-16T02:55:36.039Z,52.87
2018-04-16T02:59:21.473Z,52.91
2018-04-16T03:03:05.869Z,52.99
2018-04-16T03:06:51.382Z,53.08
2018-04-16T03:10:36.895Z,53.09
2018-04-16T03:14:20.765Z,53.15
2018-04-16T03:18:05.111Z,53.23
2018-04-16T03:21:51.136Z,53.26
2018-04-16T03:23:33.125Z,53.20
2018-04-16T03:27:19.897Z,53.19
2018-04-16T03:31:08.287Z,53.18
2018-04-16T03:33:48.177Z,53.20
2018-04-16T03:36:31.085Z,53.25
2018-04-16T03:40:16.871Z,53.31
2018-04-16T03:44:03.502Z,53.36
2018-04-16T03:45:45.600Z,53.38
2018-04-16T03:49:32.069Z,53.39
2018-04-16T03:51:13.493Z,53.38
2018-04-16T03:52:55.448Z,53.38
2018-04-16T03:54:33.020Z,53.38
2018-04-16T03:56:11.414Z,53.41
2018-04-16T03:57:49.761Z,53.43
2018-04-16T03:59:27.638Z,53.45
2018-04-16T04:01:04.856Z,53.48
2018-04-16T04:02:42.809Z,53.54
2018-04-16T04:04:20.341Z,53.57
2018-04-16T04:05:57.836Z,53.58
2018-04-16T04:07:35.661Z,53.57
2018-04-16T04:09:12.819Z,53.59
2018-04-16T04:10:50.497Z,53.60
2018-04-16T04:12:28.489Z,53.62
2018-04-16T04:14:05.511Z,53.64
2018-04-16T04:15:44.448Z,53.68
2018-04-16T04:17:21.677Z,53.71
2018-04-16T04:18:59.618Z,53.72
2018-04-16T04:20:40.120Z,53.73
2018-04-16T04:22:17.215Z,53.74
2018-04-16T04:28:15.250Z,53.75
2018-04-16T04:30:35.506Z,53.85
2018-04-16T04:32:13.615Z,53.87
2018-04-16T04:33:52.991Z,53.89
2018-04-16T04:35:30.637Z,53.91
2018-04-16T04:37:07.736Z,53.93
2018-04-16T04:38:48.150Z,53.96
2018-04-16T04:40:25.841Z,53.99
2018-04-16T04:42:03.232Z,54.03
2018-04-16T04:43:41.098Z,54.06
2018-04-16T04:45:18.686Z,54.08
2018-04-16T04:46:56.330Z,54.11
2018-04-16T04:48:34.026Z,54.14
2018-04-16T04:50:12.167Z,54.18
2018-04-16T04:51:50.347Z,54.24
2018-04-16T04:53:27.065Z,54.29
2018-04-16T04:55:04.702Z,54.33
2018-04-16T04:56:42.388Z,54.36
2018-04-16T04:58:19.857Z,54.37
2018-04-16T04:59:57.512Z,54.38
2018-04-16T05:01:34.290Z,54.38
2018-04-16T05:03:12.578Z,54.39
2018-04-16T05:04:50.684Z,54.42
2018-04-16T05:06:27.987Z,54.49
2018-04-16T05:08:05.682Z,54.56
2018-04-16T05:09:45.389Z,54.60
2018-04-16T05:11:23.073Z,54.60
2018-04-16T05:13:00.702Z,54.61
2018-04-16T05:14:37.773Z,54.62
2018-04-16T05:16:16.071Z,54.62
2018-04-16T05:17:52.876Z,54.63
2018-04-16T05:19:30.558Z,54.63
2018-04-16T05:21:08.937Z,54.66
2018-04-16T05:22:46.865Z,54.68
2018-04-16T05:24:25.002Z,54.70
2018-04-16T05:26:01.471Z,54.73
2018-04-16T05:27:39.280Z,54.76
2018-04-16T05:30:58.097Z,54.86
2018-04-16T05:32:35.224Z,54.92
2018-04-16T05:34:12.217Z,54.97
2018-04-16T05:35:50.826Z,55.00
2018-04-16T05:37:29.130Z,55.05
2018-04-16T05:39:08.408Z,55.10
2018-04-16T05:40:46.316Z,55.13
2018-04-16T05:42:23.419Z,55.16
2018-04-16T05:44:01.534Z,55.21
2018-04-16T05:45:39.539Z,55.24
2018-04-16T05:47:17.135Z,55.29
2018-04-16T05:48:54.220Z,55.33
2018-04-16T05:50:44.825Z,55.37
2018-04-16T05:52:22.876Z,55.44
2018-04-16T05:54:00.063Z,55.50
2018-04-16T05:55:37.511Z,55.55
2018-04-16T05:57:15.167Z,55.57
2018-04-16T05:58:52.851Z,55.60
2018-04-16T06:00:30.039Z,55.61
2018-04-16T06:02:07.307Z,55.65
2018-04-16T06:03:45.843Z,55.67
2018-04-16T06:05:23.538Z,55.69
2018-04-16T06:07:01.743Z,55.72
2018-04-16T06:08:39.586Z,55.74
2018-04-16T06:10:16.896Z,55.76
2018-04-16T06:11:55.701Z,55.80
2018-04-16T06:13:34.003Z,55.81
2018-04-16T06:15:13.090Z,55.85
2018-04-16T06:16:51.655Z,55.84
2018-04-16T06:18:29.534Z,55.89
2018-04-16T06:20:08.648Z,55.92
2018-04-16T06:21:46.250Z,55.94
2018-04-16T06:25:07.931Z,55.98
2018-04-16T06:26:45.285Z,56.03
2018-04-16T06:28:22.959Z,56.04
2018-04-16T06:30:00.180Z,56.04
2018-04-16T06:31:37.988Z,56.05
2018-04-16T06:33:16.449Z,56.08
2018-04-16T06:34:54.551Z,56.11
2018-04-16T06:36:32.277Z,56.13
2018-04-16T06:38:09.404Z,56.16
2018-04-16T06:39:47.313Z,56.19
2018-04-16T06:41:24.447Z,56.24
2018-04-16T06:43:02.639Z,56.25
2018-04-16T06:44:40.546Z,56.29
2018-04-16T06:46:17.963Z,56.33
2018-04-16T06:47:54.371Z,56.32
2018-04-16T06:49:31.840Z,56.35
2018-04-16T06:51:09.554Z,56.37
2018-04-16T06:52:47.714Z,56.39
2018-04-16T06:54:24.846Z,56.42
2018-04-16T06:56:01.925Z,56.43
2018-04-16T06:57:39.605Z,56.40
2018-04-16T06:59:17.652Z,56.40
2018-04-16T07:00:55.696Z,56.41
2018-04-16T07:02:32.915Z,56.42
2018-04-16T07:04:09.848Z,56.44
2018-04-16T07:05:47.310Z,56.47
2018-04-16T07:07:24.377Z,56.51
2018-04-16T07:09:02.071Z,56.52
2018-04-16T07:10:39.962Z,56.56
2018-04-16T07:12:18.163Z,56.59
2018-04-16T07:13:55.246Z,56.61
2018-04-16T07:15:32.496Z,56.61
2018-04-16T07:17:11.080Z,56.65
2018-04-16T07:18:48.977Z,56.68
2018-04-16T07:20:30.418Z,56.67
2018-04-16T07:22:07.701Z,56.69
2018-04-16T07:23:44.767Z,56.71
2018-04-16T07:25:22.309Z,56.73
2018-04-16T07:26:59.416Z,56.76
2018-04-16T07:28:36.368Z,56.78
2018-04-16T07:30:15.469Z,56.78
2018-04-16T07:31:53.169Z,56.80
2018-04-16T07:33:30.396Z,56.81
2018-04-16T07:35:08.267Z,56.78
2018-04-16T07:36:45.306Z,56.78
2018-04-16T07:38:22.646Z,56.77
2018-04-16T07:39:59.655Z,56.78
2018-04-16T07:41:37.345Z,56.78
2018-04-16T07:43:14.440Z,56.78
2018-04-16T07:44:51.147Z,56.78
2018-04-16T07:46:28.415Z,56.77
2018-04-16T07:48:07.654Z,56.79
2018-04-16T07:49:45.254Z,56.78
2018-04-16T07:51:22.351Z,56.77
2018-04-16T07:52:59.316Z,56.77
2018-04-16T07:54:37.373Z,56.79
2018-04-16T07:56:15.349Z,56.78
2018-04-16T07:57:53.648Z,56.79
2018-04-16T07:59:30.731Z,56.78
2018-04-16T08:01:08.527Z,56.78
2018-04-16T08:02:46.805Z,56.78
2018-04-16T08:04:24.514Z,56.76
2018-04-16T08:06:03.854Z,56.74
2018-04-16T08:07:42.004Z,56.72
2018-04-16T08:09:21.087Z,56.72
2018-04-16T08:10:58.302Z,56.70
2018-04-16T08:12:36.058Z,56.69
2018-04-16T08:14:13.432Z,56.69
2018-04-16T08:15:53.100Z,56.69
2018-04-16T08:17:30.119Z,56.65
2018-04-16T08:19:07.943Z,56.65
2018-04-16T08:20:46.306Z,56.66
2018-04-16T08:22:25.302Z,56.66
2018-04-16T08:24:02.729Z,56.66
2018-04-16T08:25:41.316Z,56.67
2018-04-16T08:27:19.191Z,56.65
2018-04-16T08:28:58.417Z,56.63
2018-04-16T08:30:36.723Z,56.60
2018-04-16T08:32:14.770Z,56.58
2018-04-16T08:33:51.927Z,56.57
2018-04-16T08:35:29.118Z,56.58
2018-04-16T08:37:06.800Z,56.61
2018-04-16T08:38:44.162Z,56.59
2018-04-16T08:40:21.960Z,56.61
2018-04-16T08:42:00.019Z,56.64
2018-04-16T08:43:37.016Z,56.61
2018-04-16T08:45:16.724Z,56.62
2018-04-16T08:46:55.569Z,56.61
2018-04-16T08:48:33.278Z,56.61
2018-04-16T08:50:10.435Z,56.61
2018-04-16T08:51:48.190Z,56.61
2018-04-16T08:53:25.883Z,56.60
2018-04-16T08:55:03.698Z,56.60
2018-04-16T08:56:41.685Z,56.59
2018-04-16T08:58:18.942Z,56.56
2018-04-16T08:59:56.418Z,56.53
2018-04-16T09:01:33.770Z,56.48
2018-04-16T09:03:11.030Z,56.46
2018-04-16T09:04:49.384Z,56.43
2018-04-16T09:06:27.954Z,56.41
2018-04-16T09:08:05.204Z,56.38
2018-04-16T09:09:42.795Z,56.37
2018-04-16T09:11:22.014Z,56.33
2018-04-16T09:12:59.719Z,56.31
2018-04-16T09:14:37.183Z,56.31
2018-04-16T09:16:14.891Z,56.31
2018-04-16T09:17:51.406Z,56.28
2018-04-16T09:19:29.676Z,56.26
2018-04-16T09:21:07.062Z,56.25
2018-04-16T09:22:44.347Z,56.24
2018-04-16T09:24:21.457Z,56.22
2018-04-16T09:25:59.648Z,56.20
2018-04-16T09:27:36.826Z,56.20
2018-04-16T09:29:13.988Z,56.18
2018-04-16T09:30:51.198Z,56.19
2018-04-16T09:32:28.976Z,56.18
2018-04-16T09:34:06.195Z,56.18
2018-04-16T09:35:43.379Z,56.19
2018-04-16T09:37:20.626Z,56.17
2018-04-16T09:38:58.650Z,56.17
2018-04-16T09:40:35.857Z,56.16
2018-04-16T09:42:14.136Z,56.16
2018-04-16T09:43:51.475Z,56.15
2018-04-16T09:45:29.149Z,56.15
2018-04-16T09:47:07.054Z,56.16
2018-04-16T09:48:44.449Z,56.14
2018-04-16T09:50:21.692Z,56.13
2018-04-16T09:51:59.326Z,56.12
2018-04-16T09:53:36.569Z,56.10
2018-04-16T09:55:13.818Z,56.09
2018-04-16T09:56:51.085Z,56.09
2018-04-16T09:58:28.850Z,56.07
2018-04-16T10:00:07.665Z,56.05
2018-04-16T10:01:49.569Z,56.04
2018-04-16T10:03:27.290Z,56.02
2018-04-16T10:05:04.835Z,55.99
2018-04-16T10:06:42.872Z,56.00
2018-04-16T10:08:19.921Z,55.97
2018-04-16T10:09:57.221Z,55.95
2018-04-16T10:11:35.515Z,55.91
2018-04-16T10:13:13.365Z,55.89
2018-04-16T10:14:49.973Z,55.87
2018-04-16T10:16:27.099Z,55.84
2018-04-16T10:18:07.692Z,55.82
2018-04-16T10:19:45.727Z,55.81
2018-04-16T10:21:23.089Z,55.80
2018-04-16T10:23:00.412Z,55.79
2018-04-16T10:24:37.672Z,55.77
2018-04-16T10:26:15.011Z,55.77
2018-04-16T10:27:52.052Z,55.76
2018-04-16T10:29:29.708Z,55.75
2018-04-16T10:31:06.287Z,55.73
2018-04-16T10:32:44.443Z,55.71
2018-04-16T10:34:22.124Z,55.73
2018-04-16T10:35:59.810Z,55.71
2018-04-16T10:37:37.016Z,55.72
2018-04-16T10:39:13.773Z,55.70
2018-04-16T10:40:51.002Z,55.67
2018-04-16T10:42:29.848Z,55.64
2018-04-16T10:44:07.065Z,55.62
2018-04-16T10:45:45.102Z,55.61
2018-04-16T10:47:22.551Z,55.61
2018-04-16T10:49:00.663Z,55.63
2018-04-16T10:50:38.921Z,55.62
2018-04-16T10:52:17.092Z,55.63
2018-04-16T10:53:54.848Z,55.60
2018-04-16T10:55:32.211Z,55.59
2018-04-16T10:57:09.464Z,55.59
2018-04-16T10:58:46.893Z,55.58
2018-04-16T11:00:24.899Z,55.55
2018-04-16T11:02:01.915Z,55.53
2018-04-16T11:03:39.445Z,55.52
2018-04-16T11:05:16.838Z,55.52
2018-04-16T11:06:55.443Z,55.50
2018-04-16T11:08:32.732Z,55.50
2018-04-16T11:10:10.110Z,55.49
2018-04-16T11:11:47.299Z,55.44
2018-04-16T11:13:25.214Z,55.44
2018-04-16T11:15:04.886Z,55.41
2018-04-16T11:16:43.170Z,55.37
2018-04-16T11:18:20.611Z,55.36
2018-04-16T11:19:58.486Z,55.32
2018-04-16T11:21:35.675Z,55.30
2018-04-16T11:23:13.135Z,55.28
2018-04-16T11:24:51.164Z,55.26
2018-04-16T11:26:29.030Z,55.25
2018-04-16T11:28:06.537Z,55.23
2018-04-16T11:29:44.181Z,55.22
2018-04-16T11:31:21.927Z,55.20
2018-04-16T11:32:59.660Z,55.17
2018-04-16T11:34:36.774Z,55.14
2018-04-16T11:36:14.127Z,55.12
2018-04-16T11:37:51.937Z,55.09
2018-04-16T11:39:29.099Z,55.08
2018-04-16T11:41:06.374Z,55.06
2018-04-16T11:42:43.655Z,55.02
2018-04-16T11:44:20.913Z,54.99
2018-04-16T11:45:59.265Z,54.98
2018-04-16T11:47:35.844Z,54.96
2018-04-16T11:49:12.902Z,54.97
2018-04-16T11:50:51.264Z,54.95
2018-04-16T11:52:29.024Z,54.91
2018-04-16T11:54:05.548Z,54.87
2018-04-16T11:55:42.397Z,54.83
2018-04-16T11:57:18.810Z,54.80
2018-04-16T11:58:56.326Z,54.78
2018-04-16T12:00:34.343Z,54.76
2018-04-16T12:02:11.886Z,54.74
2018-04-16T12:03:48.595Z,54.72
2018-04-16T12:05:25.000Z,54.71
2018-04-16T12:07:03.388Z,54.69
2018-04-16T12:08:41.450Z,54.68
2018-04-16T12:10:18.619Z,54.66
2018-04-16T12:11:55.650Z,54.65
2018-04-16T12:13:33.070Z,54.62
2018-04-16T12:15:13.633Z,54.59
2018-04-16T12:16:50.238Z,54.57
2018-04-16T12:18:27.275Z,54.55
2018-04-16T12:20:05.021Z,54.53
2018-04-16T12:21:42.792Z,54.51
2018-04-16T12:23:20.675Z,54.46
2018-04-16T12:24:58.622Z,54.44
2018-04-16T12:26:36.339Z,54.41
2018-04-16T12:28:13.071Z,54.38
2018-04-16T12:29:51.055Z,54.34
2018-04-16T12:31:29.526Z,54.31
2018-04-16T12:33:06.853Z,54.28
2018-04-16T12:34:44.301Z,54.22
2018-04-16T12:36:21.323Z,54.19
2018-04-16T12:37:59.028Z,54.15
2018-04-16T12:39:36.771Z,54.11
2018-04-16T12:41:14.354Z,54.08
2018-04-16T12:42:53.917Z,54.06
2018-04-16T12:44:31.608Z,54.03
2018-04-16T12:46:10.345Z,54.01
2018-04-16T12:47:48.624Z,53.97
2018-04-16T12:49:28.210Z,53.95
2018-04-16T12:51:06.575Z,53.92
2018-04-16T12:52:45.298Z,53.88
2018-04-16T12:54:22.409Z,53.86
2018-04-16T12:56:00.033Z,53.84
2018-04-16T12:57:37.360Z,53.82
2018-04-16T12:59:14.614Z,53.80
2018-04-16T13:00:51.968Z,53.77
2018-04-16T13:02:29.404Z,53.75
2018-04-16T13:04:08.477Z,53.72
2018-04-16T13:05:46.743Z,53.67
2018-04-16T13:07:26.233Z,53.64
2018-04-16T13:09:03.614Z,53.60
2018-04-16T13:10:41.212Z,53.58
2018-04-16T13:12:19.397Z,53.55
2018-04-16T13:13:57.940Z,53.51
2018-04-16T13:15:35.505Z,53.50
2018-04-16T13:17:12.722Z,53.48
2018-04-16T13:18:50.445Z,53.45
2018-04-16T13:20:31.289Z,53.41
2018-04-16T13:22:08.429Z,53.37
2018-04-16T13:23:46.462Z,53.32
2018-04-16T13:25:23.815Z,53.30
2018-04-16T13:27:01.687Z,53.27
2018-04-16T13:28:38.241Z,53.24
2018-04-16T13:30:17.741Z,53.23
2018-04-16T13:31:55.221Z,53.19
2018-04-16T13:33:32.853Z,53.16
2018-04-16T13:35:09.976Z,53.13
2018-04-16T13:36:47.008Z,53.11
2018-04-16T13:38:24.659Z,53.08
2018-04-16T13:40:02.767Z,53.04
2018-04-16T13:41:41.003Z,53.02
2018-04-16T13:43:18.958Z,53.00
2018-04-16T13:44:55.718Z,52.98
2018-04-16T13:46:33.722Z,52.96
2018-04-16T13:48:11.209Z,52.94
2018-04-16T13:49:50.167Z,52.91
2018-04-16T13:51:27.459Z,52.88
2018-04-16T13:53:04.487Z,52.86
2018-04-16T13:54:41.560Z,52.82
2018-04-16T13:56:19.718Z,52.79
2018-04-16T13:57:57.056Z,52.76
2018-04-16T13:59:34.930Z,52.74
2018-04-16T14:01:12.173Z,52.72
2018-04-16T14:02:50.992Z,52.68
2018-04-16T14:04:28.404Z,52.67
2018-04-16T14:06:08.086Z,52.63
2018-04-16T14:07:45.307Z,52.61
2018-04-16T14:09:22.436Z,52.58
2018-04-16T14:11:01.427Z,52.54
2018-04-16T14:12:39.824Z,52.52
2018-04-16T14:14:17.873Z,52.49
2018-04-16T14:15:55.538Z,52.45
2018-04-16T14:17:32.911Z,52.41
2018-04-16T14:19:10.496Z,52.36
2018-04-16T14:20:48.467Z,52.32
2018-04-16T14:22:26.027Z,52.29
2018-04-16T14:24:05.064Z,52.26
2018-04-16T14:25:42.669Z,52.25
2018-04-16T14:27:19.844Z,52.22
2018-04-16T14:28:57.021Z,52.19
2018-04-16T14:30:34.358Z,52.16
2018-04-16T14:32:13.092Z,52.11
2018-04-16T14:33:50.482Z,52.08
2018-04-16T14:35:27.680Z,52.03
2018-04-16T14:37:04.816Z,52.01
2018-04-16T14:38:42.365Z,51.99
2018-04-16T14:40:20.259Z,51.96
2018-04-16T14:41:57.542Z,51.94
2018-04-16T14:43:34.847Z,51.92
2018-04-16T14:45:13.595Z,51.89
2018-04-16T14:46:51.297Z,51.86
2018-04-16T14:48:29.270Z,51.81
2018-04-16T14:50:09.102Z,51.77
2018-04-16T14:51:46.641Z,51.73
2018-04-16T14:53:23.835Z,51.69
2018-04-16T14:55:01.822Z,51.67
2018-04-16T14:56:40.078Z,51.62
2018-04-16T14:58:18.587Z,51.59
2018-04-16T14:59:56.325Z,51.56
2018-04-16T15:01:34.766Z,51.56
2018-04-16T15:03:12.985Z,51.52
2018-04-16T15:04:50.344Z,51.49
2018-04-16T15:06:27.782Z,51.46
2018-04-16T15:08:05.497Z,51.44
2018-04-16T15:09:43.656Z,51.40
2018-04-16T15:11:20.882Z,51.37
2018-04-16T15:12:57.987Z,51.33
2018-04-16T15:14:35.551Z,51.31
2018-04-16T15:16:13.241Z,51.28
2018-04-16T15:17:51.199Z,51.25
2018-04-16T15:19:28.394Z,51.22
2018-04-16T15:21:06.508Z,51.20
2018-04-16T15:22:45.252Z,51.19
2018-04-16T15:24:23.101Z,51.16
2018-04-16T15:26:02.046Z,51.14
2018-04-16T15:27:39.327Z,51.12
2018-04-16T15:29:18.255Z,51.09
2018-04-16T15:30:56.778Z,51.05
2018-04-16T15:32:35.089Z,51.03
2018-04-16T15:34:13.011Z,51.00
2018-04-16T15:35:50.547Z,50.96
2018-04-16T15:37:28.163Z,50.94
2018-04-16T15:39:06.331Z,50.90
2018-04-16T15:40:45.103Z,50.87
2018-04-16T15:42:22.787Z,50.84
2018-04-16T15:44:00.616Z,50.81
2018-04-16T15:45:39.042Z,50.76
2018-04-16T15:47:17.932Z,50.72
2018-04-16T15:48:56.143Z,50.67
2018-04-16T15:50:34.197Z,50.63
2018-04-16T15:52:11.638Z,50.60
2018-04-16T15:53:49.924Z,50.56
2018-04-16T15:55:27.414Z,50.54
2018-04-16T15:57:05.690Z,50.49
2018-04-16T15:58:44.338Z,50.47
2018-04-16T16:00:21.887Z,50.43
2018-04-16T16:01:59.999Z,50.42
2018-04-16T16:03:37.216Z,50.39
2018-04-16T16:05:16.633Z,50.36
2018-04-16T16:06:54.760Z,50.33
2018-04-16T16:08:32.222Z,50.30
2018-04-16T16:10:09.959Z,50.26
2018-04-16T16:11:47.499Z,50.23
2018-04-16T16:13:25.686Z,50.20
2018-04-16T16:15:04.636Z,50.16
2018-04-16T16:16:44.069Z,50.14
2018-04-16T16:18:21.653Z,50.13
2018-04-16T16:19:59.656Z,50.11
2018-04-16T16:21:38.642Z,50.10
2018-04-16T16:23:17.070Z,50.06
2018-04-16T16:24:54.694Z,50.01
2018-04-16T16:26:32.246Z,49.98
2018-04-16T16:28:10.112Z,49.94
2018-04-16T16:29:48.131Z,49.89
2018-04-16T16:31:27.279Z,49.86
2018-04-16T16:33:04.649Z,49.83
2018-04-16T16:34:42.724Z,49.81
2018-04-16T16:36:20.007Z,49.78
2018-04-16T16:37:57.907Z,49.75
2018-04-16T16:39:37.238Z,49.71
2018-04-16T16:41:15.730Z,49.68
2018-04-16T16:42:53.906Z,49.64
2018-04-16T16:44:31.114Z,49.61
2018-04-16T16:46:08.712Z,49.56
2018-04-16T16:47:46.957Z,49.56
2018-04-16T16:49:25.059Z,49.53
2018-04-16T16:51:05.419Z,49.50
2018-04-16T16:52:42.039Z,49.46
2018-04-16T16:54:20.755Z,49.44
2018-04-16T16:55:58.797Z,49.40
2018-04-16T16:57:37.962Z,49.37
2018-04-16T16:59:15.837Z,49.34
2018-04-16T17:00:53.369Z,49.32
2018-04-16T17:02:31.152Z,49.30
2018-04-16T17:04:09.143Z,49.28
2018-04-16T17:05:46.916Z,49.26
2018-04-16T17:07:24.582Z,49.22
2018-04-16T17:09:03.436Z,49.19
2018-04-16T17:10:41.302Z,49.16
2018-04-16T17:12:19.029Z,49.14
2018-04-16T17:13:56.829Z,49.12
2018-04-16T17:15:37.277Z,49.09
2018-04-16T17:17:15.702Z,49.06
2018-04-16T17:18:52.860Z,49.02
2018-04-16T17:20:30.110Z,48.99
2018-04-16T17:22:08.348Z,48.98
2018-04-16T17:23:45.531Z,48.96
2018-04-16T17:25:22.799Z,48.93
2018-04-16T17:27:01.086Z,48.92
2018-04-16T17:28:38.224Z,48.90
2018-04-16T17:30:17.939Z,48.89
2018-04-16T17:31:54.969Z,48.86
2018-04-16T17:33:32.060Z,48.83
2018-04-16T17:35:09.719Z,48.80
2018-04-16T17:36:47.044Z,48.78
2018-04-16T17:38:24.346Z,48.75
2018-04-16T17:40:02.694Z,48.71
2018-04-16T17:41:40.307Z,48.68
2018-04-16T17:43:18.119Z,48.64
2018-04-16T17:44:55.668Z,48.61
2018-04-16T17:46:33.519Z,48.58
2018-04-16T17:48:11.144Z,48.55
2018-04-16T17:49:48.508Z,48.53
2018-04-16T17:51:26.478Z,48.52
2018-04-16T17:53:03.349Z,48.48
2018-04-16T17:54:40.648Z,48.47
2018-04-16T17:56:19.334Z,48.44
2018-04-16T17:57:57.179Z,48.42
2018-04-16T17:59:35.349Z,48.41
2018-04-16T18:01:13.375Z,48.39
2018-04-16T18:02:51.779Z,48.38
2018-04-16T18:04:29.128Z,48.35
2018-04-16T18:06:13.159Z,48.33
2018-04-16T18:07:50.739Z,48.30
2018-04-16T18:09:27.440Z,48.28
2018-04-16T18:11:04.771Z,48.25
2018-04-16T18:12:42.214Z,48.23
2018-04-16T18:14:20.817Z,48.23
2018-04-16T18:15:59.636Z,48.21
2018-04-16T18:17:37.859Z,48.19
2018-04-16T18:19:15.755Z,48.16
2018-04-16T18:20:53.673Z,48.15
2018-04-16T18:22:31.337Z,48.13
2018-04-16T18:24:09.563Z,48.13
2018-04-16T18:25:47.035Z,48.12
2018-04-16T18:27:24.797Z,48.09
2018-04-16T18:29:01.277Z,48.07
2018-04-16T18:30:38.345Z,48.04
2018-04-16T18:32:15.782Z,48.01
2018-04-16T18:33:52.856Z,47.98
2018-04-16T18:35:31.024Z,47.96
2018-04-16T18:37:08.288Z,47.96
2018-04-16T18:38:46.730Z,47.93
2018-04-16T18:40:24.990Z,47.91
2018-04-16T18:42:02.260Z,47.89
2018-04-16T18:43:39.827Z,47.88
2018-04-16T18:45:18.901Z,47.86
2018-04-16T18:46:56.619Z,47.83
2018-04-16T18:48:34.595Z,47.81
2018-04-16T18:50:12.386Z,47.80
2018-04-16T18:51:50.757Z,47.78
2018-04-16T18:53:28.090Z,47.77
2018-04-16T18:55:06.361Z,47.76
2018-04-16T18:56:43.440Z,47.76
2018-04-16T18:58:21.128Z,47.76
2018-04-16T18:59:58.658Z,47.73
2018-04-16T19:01:36.132Z,47.72
2018-04-16T19:03:13.662Z,47.73
2018-04-16T19:04:52.105Z,47.71
2018-04-16T19:06:29.352Z,47.69
2018-04-16T19:08:07.213Z,47.68
2018-04-16T19:09:45.198Z,47.68
2018-04-16T19:11:24.151Z,47.67
2018-04-16T19:13:01.920Z,47.66
2018-04-16T19:14:39.839Z,47.65
2018-04-16T19:16:17.681Z,47.65
2018-04-16T19:17:58.950Z,47.64
2018-04-16T19:19:36.666Z,47.63
2018-04-16T19:22:17.214Z,47.61
2018-04-16T19:23:54.978Z,47.60
2018-04-16T19:25:32.992Z,47.59
2018-04-16T19:27:14.232Z,47.58
2018-04-16T19:28:51.295Z,47.58
2018-04-16T19:30:30.085Z,47.56
2018-04-16T19:32:07.758Z,47.55
2018-04-16T19:33:49.643Z,47.54
2018-04-16T19:35:26.923Z,47.53
2018-04-16T19:37:05.456Z,47.54
2018-04-16T19:38:43.293Z,47.53
2018-04-16T19:40:21.027Z,47.50
2018-04-16T19:42:04.021Z,47.50
2018-04-16T19:43:41.805Z,47.50
2018-04-16T19:45:20.109Z,47.48
2018-04-16T19:46:57.716Z,47.46
2018-04-16T19:48:39.841Z,47.45
2018-04-16T19:50:17.018Z,47.44
2018-04-16T19:51:54.049Z,47.42
2018-04-16T19:53:31.302Z,47.41
2018-04-16T19:55:15.076Z,47.39
2018-04-16T19:56:58.174Z,47.36
2018-04-16T19:58:36.449Z,47.34
2018-04-16T20:00:17.878Z,47.33
2018-04-16T20:02:00.061Z,47.32
2018-04-16T20:04:10.315Z,47.31
2018-04-16T20:05:48.051Z,47.28
2018-04-16T20:07:26.005Z,47.27
2018-04-16T20:09:03.377Z,47.26
2018-04-16T20:12:17.664Z,47.24
2018-04-16T20:13:55.517Z,47.23
2018-04-16T20:15:33.834Z,47.22
2018-04-16T20:17:10.879Z,47.19
2018-04-16T20:18:48.796Z,47.19
2018-04-16T20:20:26.129Z,47.17
2018-04-16T20:22:03.976Z,47.17
2018-04-16T20:23:42.477Z,47.15
2018-04-16T20:25:20.700Z,47.15
2018-04-16T20:26:57.857Z,47.13
2018-04-16T20:28:36.729Z,47.12
2018-04-16T20:30:15.682Z,47.11
2018-04-16T20:31:53.228Z,47.09
2018-04-16T20:33:30.422Z,47.09
2018-04-16T20:35:07.669Z,47.07
2018-04-16T20:36:46.169Z,47.07
2018-04-16T20:38:23.686Z,47.06
2018-04-16T20:40:01.879Z,47.05
2018-04-16T20:41:39.529Z,47.04
2018-04-16T20:43:17.460Z,47.04
2018-04-16T20:44:55.632Z,47.02
2018-04-16T20:46:34.012Z,47.02
2018-04-16T20:48:11.265Z,47.02
2018-04-16T20:49:49.201Z,47.01
2018-04-16T20:51:26.951Z,47.00
2018-04-16T20:53:04.071Z,46.99
2018-04-16T20:54:42.243Z,46.98
2018-04-16T20:56:19.274Z,46.96
2018-04-16T20:57:57.131Z,46.94
2018-04-16T20:59:34.871Z,46.92
2018-04-16T21:01:12.764Z,46.89
2018-04-16T21:02:49.179Z,46.89
2018-04-16T21:04:26.759Z,46.88
2018-04-16T21:06:03.179Z,46.87
2018-04-16T21:07:40.944Z,46.86
2018-04-16T21:09:18.115Z,46.84
2018-04-16T21:10:55.167Z,46.83
2018-04-16T21:12:38.540Z,46.82
2018-04-16T21:14:15.522Z,46.81
2018-04-16T21:15:52.732Z,46.80
2018-04-16T21:17:30.653Z,46.80
2018-04-16T21:19:08.023Z,46.80
2018-04-16T21:20:45.038Z,46.79
2018-04-16T21:22:21.389Z,46.76
2018-04-16T21:23:59.285Z,46.76
2018-04-16T21:25:36.834Z,46.77
2018-04-16T21:27:13.333Z,46.77
2018-04-16T21:28:50.525Z,46.76
2018-04-16T21:30:27.621Z,46.77
2018-04-16T21:32:05.696Z,46.77
2018-04-16T21:33:43.796Z,46.76
2018-04-16T21:35:20.861Z,46.77
2018-04-16T21:36:59.028Z,46.76
2018-04-16T21:38:37.224Z,46.76
2018-04-16T21:40:15.475Z,46.76
2018-04-16T21:41:54.331Z,46.76
2018-04-16T21:43:32.646Z,46.76
2018-04-16T21:45:12.604Z,46.76
2018-04-16T21:46:50.594Z,46.76
2018-04-16T21:48:28.532Z,46.78
2018-04-16T21:50:06.017Z,46.79
2018-04-16T21:51:43.879Z,46.79
2018-04-16T21:53:20.970Z,46.80
2018-04-16T21:54:58.655Z,46.80
2018-04-16T21:56:36.642Z,46.81
2018-04-16T21:58:14.850Z,46.79
2018-04-16T21:59:51.935Z,46.81
2018-04-16T22:01:29.469Z,46.81
2018-04-16T22:03:08.308Z,46.82
2018-04-16T22:04:46.868Z,46.83
2018-04-16T22:06:24.123Z,46.84
2018-04-16T22:08:02.277Z,46.84
2018-04-16T22:09:39.959Z,46.82
2018-04-16T22:11:17.028Z,46.81
2018-04-16T22:12:54.770Z,46.79
2018-04-16T22:14:32.602Z,46.79
2018-04-16T22:16:10.275Z,46.81
2018-04-16T22:17:47.410Z,46.81
2018-04-16T22:19:25.106Z,46.82
2018-04-16T22:21:02.939Z,46.83
2018-04-16T22:22:41.227Z,46.83
2018-04-16T22:24:18.768Z,46.82
2018-04-16T22:25:56.236Z,46.83
2018-04-16T22:27:39.614Z,46.79
2018-04-16T22:29:18.989Z,46.77
2018-04-16T22:30:56.559Z,46.76
2018-04-16T22:32:33.776Z,46.75
2018-04-16T22:34:11.594Z,46.74
2018-04-16T22:35:49.028Z,46.73
2018-04-16T22:37:27.021Z,46.77
2018-04-16T22:39:04.313Z,46.75
2018-04-16T22:40:41.886Z,46.72
2018-04-16T22:42:18.823Z,46.75
2018-04-16T22:43:57.678Z,46.76
2018-04-16T22:45:36.132Z,46.76
2018-04-16T22:47:15.004Z,46.78
2018-04-16T22:48:52.720Z,46.79
2018-04-16T22:50:29.846Z,46.80
2018-04-16T22:52:07.735Z,46.82
2018-04-16T22:53:46.375Z,46.84
2018-04-16T22:55:23.998Z,46.85